Hampden, North Dakota
Current Conditions -  °F | °C
As of 4:15 AM on Saturday 25 Oct 2014 (Local Time) from KD55 Reporting Station
Clear Clear  
Wind Chill: 28°   Ceiling: Unl
Heat Index: 36°   Visibility: 10mi
Dew Point: 28°   Wind: 10mph
Humidity: 75%   Direction: 270°W
Pressure: 29.97"   Gusts: NA
Location:  48.54°N, 98.65°W
Report Text: KD55 250915Z AUTO 27009KT 10SM CLR 02/M02 A2997 RMK AO2
Loading
Personal Weather Stations






























Interactive Weather Map
Tropical Storm Tracking
New forecast layout! Learn more

10-Day Weather Forecast

Advertisements
Track Severe Weather on mobile